createdAt,value
2023-04-02T00:01:40.748Z,99533.59
2023-04-02T00:04:22.157Z,99538.97
2023-04-02T00:06:57.230Z,99538.28
2023-04-02T00:09:33.902Z,99561.09
2023-04-02T00:12:19.565Z,99559.44
2023-04-02T00:14:52.311Z,99565.75
2023-04-02T00:17:23.189Z,99564.16
2023-04-02T00:19:55.139Z,99569.50
2023-04-02T00:22:29.477Z,99567.81
2023-04-02T00:25:04.657Z,99582.72
2023-04-02T00:27:34.625Z,99580.91
2023-04-02T00:30:04.449Z,99597.53
2023-04-02T00:32:35.165Z,99593.94
2023-04-02T00:35:05.483Z,99599.13
2023-04-02T00:37:39.200Z,99591.28
2023-04-02T00:40:17.216Z,99601.81
2023-04-02T00:42:47.429Z,99607.22
2023-04-02T00:45:22.753Z,99618.81
2023-04-02T00:47:53.083Z,99625.09
2023-04-02T00:50:29.070Z,99624.38
2023-04-02T00:53:00.202Z,99628.84
2023-04-02T00:55:36.500Z,99625.47
2023-04-02T00:58:08.221Z,99629.88
2023-04-02T01:00:39.178Z,99638.69
2023-04-02T01:03:35.032Z,99641.47
2023-04-02T01:06:11.030Z,99655.63
2023-04-02T01:08:54.165Z,99654.84
2023-04-02T01:11:39.407Z,99665.34
2023-04-02T01:14:12.773Z,99650.69
2023-04-02T01:16:50.519Z,99665.78
2023-04-02T01:19:39.775Z,99660.69
2023-04-02T01:22:12.103Z,99672.97
2023-04-02T01:24:44.166Z,99675.66
2023-04-02T01:27:20.850Z,99677.44
2023-04-02T01:29:56.821Z,99689.06
2023-04-02T01:32:28.339Z,99681.28
2023-04-02T01:34:58.894Z,99689.28
2023-04-02T01:37:40.642Z,99706.16
2023-04-02T01:40:19.140Z,99701.97
2023-04-02T01:42:55.995Z,99710.84
2023-04-02T01:45:28.973Z,99709.16
2023-04-02T01:47:59.482Z,99715.41
2023-04-02T01:50:33.855Z,99709.41
2023-04-02T01:53:05.226Z,99733.06
2023-04-02T01:55:42.753Z,99721.75
2023-04-02T01:58:14.304Z,99728.81
2023-04-02T02:00:52.858Z,99737.59
2023-04-02T02:03:22.806Z,99749.84
2023-04-02T02:05:52.901Z,99743.81
2023-04-02T02:08:35.217Z,99736.94
2023-04-02T02:11:05.851Z,99750.16
2023-04-02T02:13:35.603Z,99765.97
2023-04-02T02:16:10.230Z,99754.63
2023-04-02T02:18:40.141Z,99756.41
2023-04-02T02:21:11.144Z,99766.13
2023-04-02T02:23:40.842Z,99767.94
2023-04-02T02:26:11.009Z,99774.22
2023-04-02T02:28:42.662Z,99775.91
2023-04-02T02:31:18.940Z,99786.44
2023-04-02T02:33:53.570Z,99793.53
2023-04-02T02:36:28.895Z,99785.63
2023-04-02T02:39:05.259Z,99795.31
2023-04-02T02:41:46.084Z,99806.75
2023-04-02T02:44:20.407Z,99804.22
2023-04-02T02:46:54.871Z,99807.06
2023-04-02T02:49:29.053Z,99817.69
2023-04-02T02:52:03.335Z,99829.22
2023-04-02T02:54:45.473Z,99825.84
2023-04-02T02:57:17.375Z,99837.38
2023-04-02T02:59:48.192Z,99826.16
2023-04-02T03:02:21.559Z,99863.91
2023-04-02T03:04:54.022Z,99856.19
2023-04-02T03:07:29.407Z,99864.19
2023-04-02T03:10:06.979Z,99861.03
2023-04-02T03:12:45.844Z,99862.22
2023-04-02T03:15:22.040Z,99910.63
2023-04-02T03:17:57.647Z,99877.63
2023-04-02T03:20:29.795Z,99866.47
2023-04-02T03:23:02.590Z,99885.84
2023-04-02T03:25:38.178Z,99902.47
2023-04-02T03:28:09.588Z,99898.97
2023-04-02T03:30:43.311Z,99904.19
2023-04-02T03:33:20.430Z,99891.00
2023-04-02T03:35:57.957Z,99923.22
2023-04-02T03:38:30.580Z,99919.66
2023-04-02T03:41:07.835Z,99922.22
2023-04-02T03:43:42.703Z,99951.97
2023-04-02T03:46:25.161Z,99918.72
2023-04-02T03:49:00.768Z,99941.44
2023-04-02T03:51:34.004Z,99949.41
2023-04-02T03:54:05.209Z,99954.59
2023-04-02T03:56:40.183Z,99952.91
2023-04-02T03:59:18.988Z,99956.41
2023-04-02T04:01:52.203Z,99957.13
2023-04-02T04:04:25.157Z,99971.09
2023-04-02T04:06:56.401Z,99970.25
2023-04-02T04:09:29.879Z,99986.00
2023-04-02T04:12:09.969Z,100004.50
2023-04-02T04:14:42.338Z,99980.16
2023-04-02T04:17:15.917Z,99998.59
2023-04-02T04:19:52.035Z,100007.41
2023-04-02T04:22:30.176Z,100008.34
2023-04-02T04:25:07.023Z,100013.59
2023-04-02T04:27:42.962Z,100036.34
2023-04-02T04:30:21.123Z,100043.44
2023-04-02T04:32:58.251Z,100022.50
2023-04-02T04:35:34.209Z,100045.22
2023-04-02T04:38:10.385Z,100040.00
2023-04-02T04:40:45.279Z,100039.16
2023-04-02T04:43:19.707Z,100046.09
2023-04-02T04:45:50.351Z,100053.06
2023-04-02T04:48:26.815Z,100064.47
2023-04-02T04:51:02.847Z,100074.06
2023-04-02T04:53:33.887Z,100083.72
2023-04-02T04:56:18.956Z,100082.06
2023-04-02T04:58:55.426Z,100100.47
2023-04-02T05:01:28.517Z,100107.53
2023-04-02T05:04:01.609Z,100104.16
2023-04-02T05:06:42.656Z,100119.88
2023-04-02T05:09:18.745Z,100123.44
2023-04-02T05:11:51.195Z,100128.69
2023-04-02T05:14:26.700Z,100114.75
2023-04-02T05:17:03.117Z,100134.94
2023-04-02T05:19:37.575Z,100134.94
2023-04-02T05:22:17.977Z,100156.88
2023-04-02T05:24:56.426Z,100156.97
2023-04-02T05:27:35.189Z,100153.53
2023-04-02T05:30:12.825Z,100168.44
2023-04-02T05:32:46.634Z,100159.75
2023-04-02T05:35:22.298Z,100181.59
2023-04-02T05:37:54.613Z,100195.59
2023-04-02T05:40:26.543Z,100189.44
2023-04-02T05:42:56.649Z,100199.84
2023-04-02T05:45:31.469Z,100211.22
2023-04-02T05:48:06.081Z,100211.13
2023-04-02T05:50:45.029Z,100223.28
2023-04-02T05:53:26.278Z,100223.19
2023-04-02T05:55:59.623Z,100241.44
2023-04-02T05:58:36.955Z,100237.94
2023-04-02T06:01:28.302Z,100253.69
2023-04-02T06:04:03.812Z,100257.16
2023-04-02T06:06:46.780Z,100258.16
2023-04-02T06:09:24.574Z,100265.25
2023-04-02T06:11:58.956Z,100277.72
2023-04-02T06:14:28.697Z,100292.75
2023-04-02T06:16:58.926Z,100291.19
2023-04-02T06:19:33.415Z,100298.28
2023-04-02T06:22:12.438Z,100309.69
2023-04-02T06:24:47.155Z,100318.50
2023-04-02T06:27:20.086Z,100319.44
2023-04-02T06:29:53.078Z,100313.38
2023-04-02T06:32:27.049Z,100322.94
2023-04-02T06:34:57.134Z,100326.50
2023-04-02T06:37:31.559Z,100324.78
2023-04-02T06:40:28.669Z,100346.56
2023-04-02T06:42:59.985Z,100347.47
2023-04-02T06:46:00.901Z,100351.06
2023-04-02T06:48:37.305Z,100360.69
2023-04-02T06:51:09.892Z,100360.75
2023-04-02T06:53:43.101Z,100392.19
2023-04-02T06:56:25.413Z,100384.41
2023-04-02T06:58:55.216Z,100385.25
2023-04-02T07:01:28.699Z,100399.16
2023-04-02T07:03:59.347Z,100386.00
2023-04-02T07:06:37.385Z,100396.50
2023-04-02T07:09:07.763Z,100393.88
2023-04-02T07:11:43.194Z,100405.19
2023-04-02T07:14:14.716Z,100402.53
2023-04-02T07:16:45.924Z,100414.78
2023-04-02T07:19:21.940Z,100417.38
2023-04-02T07:21:56.637Z,100437.38
2023-04-02T07:24:28.269Z,100431.19
2023-04-02T07:27:00.571Z,100428.38
2023-04-02T07:29:30.390Z,100454.50
2023-04-02T07:32:00.124Z,100449.22
2023-04-02T07:34:29.883Z,100456.94
2023-04-02T07:36:59.540Z,100466.50
2023-04-02T07:39:29.187Z,100457.72
2023-04-02T07:42:02.921Z,100454.19
2023-04-02T07:44:32.595Z,100461.34
2023-04-02T07:47:02.295Z,100471.03
2023-04-02T07:49:31.984Z,100473.69
2023-04-02T07:52:02.110Z,100480.63
2023-04-02T07:54:31.830Z,100493.66
2023-04-02T07:57:04.129Z,100499.78
2023-04-02T07:59:33.873Z,100519.03
2023-04-02T08:02:04.554Z,100496.34
2023-04-02T08:04:34.580Z,100499.84
2023-04-02T08:07:04.466Z,100515.59
2023-04-02T08:09:34.141Z,100528.69
2023-04-02T08:12:06.641Z,100526.94
2023-04-02T08:14:36.377Z,100534.66
2023-04-02T08:17:06.348Z,100541.53
2023-04-02T08:19:44.611Z,100534.53
2023-04-02T08:22:21.601Z,100550.19
2023-04-02T08:24:51.255Z,100551.88
2023-04-02T08:27:23.686Z,100555.31
2023-04-02T08:29:53.807Z,100564.88
2023-04-02T08:32:24.316Z,100571.91
2023-04-02T08:34:54.060Z,100584.97
2023-04-02T08:37:23.741Z,100587.53
2023-04-02T08:39:53.395Z,100586.59
2023-04-02T08:42:32.999Z,100599.69
2023-04-02T08:45:23.543Z,100590.00
2023-04-02T08:47:56.645Z,100593.13
2023-04-02T08:50:33.016Z,100591.13
2023-04-02T08:53:04.352Z,100622.50
2023-04-02T08:55:39.980Z,100595.13
2023-04-02T08:58:20.992Z,100615.03
2023-04-02T09:00:52.313Z,100614.69
2023-04-02T09:03:24.846Z,100632.91
2023-04-02T09:05:55.351Z,100624.16
2023-04-02T09:08:27.310Z,100633.78
2023-04-02T09:11:02.286Z,100644.06
2023-04-02T09:13:37.683Z,100651.81
2023-04-02T09:16:11.898Z,100659.63
2023-04-02T09:18:41.832Z,100660.78
2023-04-02T09:21:28.385Z,100653.13
2023-04-02T09:23:58.113Z,100667.31
2023-04-02T09:26:30.778Z,100670.81
2023-04-02T09:29:24.829Z,100671.47
2023-04-02T09:32:00.269Z,100683.44
2023-04-02T09:34:31.470Z,100682.56
2023-04-02T09:37:10.105Z,100694.97
2023-04-02T09:39:40.225Z,100688.75
2023-04-02T09:42:10.845Z,100706.97
2023-04-02T09:44:43.524Z,100718.16
2023-04-02T09:47:27.367Z,100720.84
2023-04-02T09:49:57.063Z,100732.34
2023-04-02T09:52:31.059Z,100740.25
2023-04-02T09:55:22.620Z,100739.31
2023-04-02T09:57:53.611Z,100762.94
2023-04-02T10:00:32.016Z,100755.81
2023-04-02T10:03:24.931Z,100753.56
2023-04-02T10:06:07.918Z,100746.16
2023-04-02T10:08:38.853Z,100768.06
2023-04-02T10:11:12.156Z,100766.19
2023-04-02T10:13:49.201Z,100777.41
2023-04-02T10:16:27.131Z,100780.19
2023-04-02T10:19:00.122Z,100782.91
2023-04-02T10:21:32.360Z,100793.28
2023-04-02T10:24:03.073Z,100798.56
2023-04-02T10:26:48.459Z,100800.38
2023-04-02T10:29:41.723Z,100809.00
2023-04-02T10:32:17.914Z,100823.66
2023-04-02T10:34:53.300Z,100822.81
2023-04-02T10:37:53.063Z,100823.97
2023-04-02T10:40:28.381Z,100817.97
2023-04-02T10:43:07.581Z,100818.56
2023-04-02T10:45:42.798Z,100823.59
2023-04-02T10:48:23.130Z,100838.53
2023-04-02T10:50:58.259Z,100837.13
2023-04-02T10:53:35.077Z,100848.56
2023-04-02T10:56:08.887Z,100851.44
2023-04-02T10:58:43.345Z,100848.09
2023-04-02T11:01:18.180Z,100857.75
2023-04-02T11:03:57.843Z,100843.72
2023-04-02T11:06:30.251Z,100862.94
2023-04-02T11:09:02.093Z,100867.16
2023-04-02T11:11:34.826Z,100877.25
2023-04-02T11:14:07.079Z,100883.28
2023-04-02T11:16:39.354Z,100897.28
2023-04-02T11:19:25.487Z,100897.06
2023-04-02T11:22:00.089Z,100892.25
2023-04-02T11:24:39.748Z,100894.44
2023-04-02T11:27:25.602Z,100898.59
2023-04-02T11:30:04.989Z,100902.16
2023-04-02T11:32:39.660Z,100907.59
2023-04-02T11:35:38.701Z,100911.28
2023-04-02T11:38:48.077Z,100912.94
2023-04-02T11:41:17.499Z,100918.34
2023-04-02T11:44:03.523Z,100938.91
2023-04-02T11:46:45.948Z,100932.84
2023-04-02T11:49:37.224Z,100940.75
2023-04-02T11:52:25.705Z,100953.03
2023-04-02T11:55:20.661Z,100931.16
2023-04-02T11:57:59.074Z,100945.81
2023-04-02T12:00:45.187Z,100937.97
2023-04-02T12:03:40.250Z,100939.75
2023-04-02T12:06:16.356Z,100946.88
2023-04-02T12:08:57.948Z,100943.16
2023-04-02T12:11:36.026Z,100946.41
2023-04-02T12:14:10.920Z,100948.84
2023-04-02T12:16:40.623Z,100945.50
2023-04-02T12:19:11.756Z,100959.72
2023-04-02T12:21:41.666Z,100958.13
2023-04-02T12:24:21.903Z,100960.75
2023-04-02T12:26:52.720Z,100966.38
2023-04-02T12:29:27.686Z,100985.03
2023-04-02T12:31:58.529Z,100984.91
2023-04-02T12:34:29.474Z,100969.94
2023-04-02T12:37:02.723Z,100972.53
2023-04-02T12:39:37.425Z,100984.81
2023-04-02T12:42:07.986Z,100983.09
2023-04-02T12:44:37.676Z,100988.31
2023-04-02T12:47:07.738Z,100994.63
2023-04-02T12:49:39.524Z,101002.72
2023-04-02T12:52:10.890Z,101014.25
2023-04-02T12:54:49.531Z,101002.81
2023-04-02T12:57:36.387Z,101010.41
2023-04-02T13:00:38.354Z,101008.66
2023-04-02T13:03:23.215Z,101013.22
2023-04-02T13:05:56.547Z,101019.53
2023-04-02T13:08:28.484Z,101017.03
2023-04-02T13:11:02.476Z,101011.91
2023-04-02T13:13:35.735Z,101018.16
2023-04-02T13:16:09.861Z,101021.91
2023-04-02T13:18:39.658Z,101016.94
2023-04-02T13:21:10.671Z,101044.19
2023-04-02T13:23:40.345Z,101036.34
2023-04-02T13:26:19.147Z,101030.13
2023-04-02T13:28:59.346Z,101040.59
2023-04-02T13:31:29.098Z,101038.81
2023-04-02T13:33:58.961Z,101046.69
2023-04-02T13:36:29.635Z,101039.72
2023-04-02T13:38:59.563Z,101068.66
2023-04-02T13:41:33.236Z,101055.47
2023-04-02T13:44:06.314Z,101058.91
2023-04-02T13:46:37.188Z,101084.97
2023-04-02T13:49:06.821Z,101074.31
2023-04-02T13:51:39.733Z,101063.63
2023-04-02T13:54:11.980Z,101076.63
2023-04-02T13:56:44.227Z,101090.53
2023-04-02T13:59:13.927Z,101085.13
2023-04-02T14:01:44.946Z,101098.25
2023-04-02T14:04:17.740Z,101088.63
2023-04-02T14:07:13.410Z,101092.09
2023-04-02T14:09:53.919Z,101099.28
2023-04-02T14:12:35.049Z,101098.44
2023-04-02T14:15:20.200Z,101110.78
2023-04-02T14:18:00.672Z,101127.75
2023-04-02T14:20:39.008Z,101114.84
2023-04-02T14:23:20.538Z,101128.16
2023-04-02T14:25:57.714Z,101122.09
2023-04-02T14:28:38.189Z,101131.75
2023-04-02T14:31:15.205Z,101137.94
2023-04-02T14:33:50.296Z,101146.72
2023-04-02T14:36:25.412Z,101149.31
2023-04-02T14:38:59.074Z,101149.25
2023-04-02T14:41:33.704Z,101145.69
2023-04-02T14:44:07.396Z,101162.34
2023-04-02T14:46:39.890Z,101157.13
2023-04-02T14:49:21.891Z,101154.50
2023-04-02T14:51:52.986Z,101150.94
2023-04-02T14:54:27.372Z,101157.06
2023-04-02T14:56:58.772Z,101163.16
2023-04-02T14:59:34.197Z,101167.53
2023-04-02T15:02:06.938Z,101163.13
2023-04-02T15:04:40.210Z,101157.72
2023-04-02T15:07:17.309Z,101155.69
2023-04-02T15:09:50.664Z,101155.38
2023-04-02T15:12:24.256Z,101166.47
2023-04-02T15:14:58.320Z,101169.84
2023-04-02T15:17:28.030Z,101164.59
2023-04-02T15:20:04.210Z,101162.06
2023-04-02T15:22:37.549Z,101175.31
2023-04-02T15:25:26.615Z,101167.44
2023-04-02T15:28:12.176Z,101175.34
2023-04-02T15:30:46.266Z,101167.53
2023-04-02T15:33:37.202Z,101184.38
2023-04-02T15:36:22.216Z,101176.63
2023-04-02T15:38:55.616Z,101179.34
2023-04-02T15:41:28.174Z,101184.50
2023-04-02T15:44:02.390Z,101172.13
2023-04-02T15:46:35.620Z,101181.81
2023-04-02T15:49:13.400Z,101188.03
2023-04-02T15:51:50.183Z,101185.41
2023-04-02T15:54:36.036Z,101196.75
2023-04-02T15:57:17.538Z,101207.28
2023-04-02T15:59:59.877Z,101200.34
2023-04-02T16:03:00.034Z,101201.22
2023-04-02T16:05:41.536Z,101205.56
2023-04-02T16:08:22.815Z,101209.91
2023-04-02T16:10:52.486Z,101214.25
2023-04-02T16:13:29.867Z,101221.34
2023-04-02T16:16:06.511Z,101232.03
2023-04-02T16:18:42.083Z,101232.13
2023-04-02T16:21:20.058Z,101229.63
2023-04-02T16:23:49.741Z,101245.53
2023-04-02T16:26:26.776Z,101242.16
2023-04-02T16:29:02.617Z,101234.28
2023-04-02T16:31:36.000Z,101240.38
2023-04-02T16:34:11.160Z,101238.56
2023-04-02T16:36:53.192Z,101244.66
2023-04-02T16:39:31.651Z,101242.00
2023-04-02T16:42:08.608Z,101248.13
2023-04-02T16:44:47.330Z,101253.38
2023-04-02T16:47:26.782Z,101268.38
2023-04-02T16:50:00.700Z,101272.00
2023-04-02T16:52:43.700Z,101269.41
2023-04-02T16:55:26.260Z,101272.94
2023-04-02T16:58:05.096Z,101265.97
2023-04-02T17:00:39.156Z,101274.75
2023-04-02T17:03:15.191Z,101275.56
2023-04-02T17:05:53.211Z,101290.47
2023-04-02T17:08:28.118Z,101291.31
2023-04-02T17:11:00.781Z,101293.97
2023-04-02T17:13:34.796Z,101293.06
2023-04-02T17:16:15.644Z,101289.56
2023-04-02T17:18:46.835Z,101302.75
2023-04-02T17:21:21.608Z,101304.53
2023-04-02T17:23:57.368Z,101317.72
2023-04-02T17:26:29.668Z,101323.03
2023-04-02T17:29:01.025Z,101334.47
2023-04-02T17:31:35.365Z,101331.00
2023-04-02T17:34:13.424Z,101334.56
2023-04-02T17:36:49.686Z,101348.56
2023-04-02T17:39:25.777Z,101336.28
2023-04-02T17:41:59.166Z,101353.84
2023-04-02T17:44:44.234Z,101346.84
2023-04-02T17:47:18.917Z,101354.78
2023-04-02T17:49:56.690Z,101360.06
2023-04-02T17:52:28.365Z,101361.81
2023-04-02T17:55:08.486Z,101372.38
2023-04-02T17:57:47.465Z,101371.53
2023-04-02T18:00:25.514Z,101361.94
2023-04-02T18:03:04.260Z,101375.09
2023-04-02T18:05:36.418Z,101383.88
2023-04-02T18:08:14.680Z,101380.44
2023-04-02T18:10:52.639Z,101384.84
2023-04-02T18:13:26.868Z,101387.50
2023-04-02T18:16:03.234Z,101394.56
2023-04-02T18:18:47.504Z,101390.22
2023-04-02T18:21:23.079Z,101403.38
2023-04-02T18:24:02.036Z,101404.25
2023-04-02T18:26:42.670Z,101412.16
2023-04-02T18:29:21.730Z,101420.94
2023-04-02T18:31:55.913Z,101428.81
2023-04-02T18:34:32.336Z,101421.84
2023-04-02T18:37:15.358Z,101425.34
2023-04-02T18:39:54.455Z,101427.09
2023-04-02T18:42:39.478Z,101432.34
2023-04-02T18:45:16.164Z,101438.47
2023-04-02T18:47:50.431Z,101443.69
2023-04-02T18:50:22.342Z,101448.03
2023-04-02T18:52:53.266Z,101453.28
2023-04-02T18:55:25.477Z,101444.53
2023-04-02T18:58:01.417Z,101458.53
2023-04-02T19:00:33.914Z,101449.78
2023-04-02T19:03:06.868Z,101452.41
2023-04-02T19:05:44.621Z,101469.84
2023-04-02T19:08:18.762Z,101469.81
2023-04-02T19:10:50.533Z,101473.25
2023-04-02T19:13:23.907Z,101476.72
2023-04-02T19:16:04.357Z,101480.22
2023-04-02T19:18:41.785Z,101480.16
2023-04-02T19:21:17.687Z,101480.16
2023-04-02T19:23:59.088Z,101483.59
2023-04-02T19:26:35.094Z,101486.19
2023-04-02T19:29:14.706Z,101494.88
2023-04-02T19:31:51.289Z,101500.06
2023-04-02T19:34:25.115Z,101499.06
2023-04-02T19:36:56.946Z,101509.50
2023-04-02T19:39:46.821Z,101509.44
2023-04-02T19:42:25.802Z,101518.09
2023-04-02T19:44:58.216Z,101515.41
2023-04-02T19:47:27.996Z,101517.06
2023-04-02T19:49:58.206Z,101526.59
2023-04-02T19:52:27.977Z,101521.28
2023-04-02T19:54:57.845Z,101527.31
2023-04-02T19:57:28.526Z,101535.06
2023-04-02T20:00:00.824Z,101540.19
2023-04-02T20:02:30.691Z,101534.00
2023-04-02T20:05:00.619Z,101537.41
2023-04-02T20:07:30.269Z,101538.19
2023-04-02T20:09:59.943Z,101540.75
2023-04-02T20:12:29.629Z,101536.38
2023-04-02T20:15:01.906Z,101538.94
2023-04-02T20:17:31.682Z,101551.13
2023-04-02T20:20:01.421Z,101541.63
2023-04-02T20:22:31.123Z,101549.44
2023-04-02T20:25:00.984Z,101549.44
2023-04-02T20:27:31.449Z,101554.66
2023-04-02T20:30:03.750Z,101548.50
2023-04-02T20:32:35.186Z,101559.78
2023-04-02T20:35:06.949Z,101562.34
2023-04-02T20:37:36.904Z,101567.44
2023-04-02T20:40:07.005Z,101572.56
2023-04-02T20:42:36.798Z,101570.69
2023-04-02T20:45:11.172Z,101575.78
2023-04-02T20:47:40.937Z,101580.00
2023-04-02T20:50:11.718Z,101586.81
2023-04-02T20:52:41.514Z,101582.31
2023-04-02T20:55:12.658Z,101592.59
2023-04-02T20:57:42.524Z,101601.16
2023-04-02T21:00:15.827Z,101599.28
2023-04-02T21:02:45.573Z,101603.53
2023-04-02T21:05:15.263Z,101607.78
2023-04-02T21:07:44.955Z,101605.91
2023-04-02T21:10:14.638Z,101617.13
2023-04-02T21:12:44.326Z,101618.78
2023-04-02T21:15:16.680Z,101623.00
2023-04-02T21:17:46.543Z,101619.41
2023-04-02T21:20:16.234Z,101620.16
2023-04-02T21:22:45.944Z,101614.88
2023-04-02T21:25:15.906Z,101613.91
2023-04-02T21:27:45.692Z,101619.91
2023-04-02T21:30:18.237Z,101612.91
2023-04-02T21:32:47.947Z,101619.84
2023-04-02T21:35:17.830Z,101615.41
2023-04-02T21:37:47.492Z,101621.47
2023-04-02T21:40:17.397Z,101623.19
2023-04-02T21:42:47.230Z,101627.50
2023-04-02T21:45:19.705Z,101627.47
2023-04-02T21:47:49.439Z,101631.72
2023-04-02T21:50:19.246Z,101628.22
2023-04-02T21:52:48.999Z,101630.81
2023-04-02T21:55:18.972Z,101631.63
2023-04-02T21:57:48.637Z,101631.66
2023-04-02T22:00:21.494Z,101631.63
2023-04-02T22:02:51.316Z,101635.06
2023-04-02T22:05:21.079Z,101632.47
2023-04-02T22:07:50.778Z,101629.81
2023-04-02T22:10:20.783Z,101630.63
2023-04-02T22:12:50.633Z,101638.38
2023-04-02T22:15:22.976Z,101635.72
2023-04-02T22:17:52.859Z,101639.13
2023-04-02T22:20:22.658Z,101635.56
2023-04-02T22:22:53.427Z,101645.91
2023-04-02T22:25:23.172Z,101654.53
2023-04-02T22:27:53.744Z,101646.69
2023-04-02T22:30:27.955Z,101652.69
2023-04-02T22:32:57.433Z,101654.38
2023-04-02T22:35:27.358Z,101659.56
2023-04-02T22:37:57.387Z,101661.28
2023-04-02T22:40:27.238Z,101671.59
2023-04-02T22:42:56.982Z,101665.50
2023-04-02T22:45:29.295Z,101669.84
2023-04-02T22:47:58.985Z,101669.00
2023-04-02T22:50:28.673Z,101676.84
2023-04-02T22:52:58.374Z,101674.19
2023-04-02T22:55:28.070Z,101671.59
2023-04-02T22:57:57.749Z,101682.00
2023-04-02T23:00:30.470Z,101685.53
2023-04-02T23:03:00.171Z,101686.38
2023-04-02T23:05:31.177Z,101681.97
2023-04-02T23:08:01.215Z,101687.97
2023-04-02T23:10:31.006Z,101681.88
2023-04-02T23:13:00.891Z,101684.47
2023-04-02T23:15:33.195Z,101681.00
2023-04-02T23:18:02.916Z,101687.94
2023-04-02T23:20:32.650Z,101686.22
2023-04-02T23:23:02.366Z,101689.66
2023-04-02T23:25:32.512Z,101692.22
2023-04-02T23:28:02.246Z,101687.75
2023-04-02T23:30:34.854Z,101683.25
2023-04-02T23:33:04.904Z,101691.00
2023-04-02T23:35:34.645Z,101690.97
2023-04-02T23:38:04.580Z,101691.75
2023-04-02T23:40:34.534Z,101690.84
2023-04-02T23:43:04.441Z,101694.25
2023-04-02T23:45:36.704Z,101696.81
2023-04-02T23:48:06.962Z,101695.91
2023-04-02T23:50:36.846Z,101700.09
2023-04-02T23:53:06.713Z,101698.25
2023-04-02T23:55:36.368Z,101693.00
2023-04-02T23:58:06.471Z,101694.63
